sensor_id;sensor_type;location;lat;lon;timestamp;P1;durP1;ratioP1;P2;durP2;ratioP2
32295;SDS011;18781;51.550;5.418;2023-08-08T00:02:14;11.68;;;3.67;;
32295;SDS011;18781;51.550;5.418;2023-08-08T00:04:39;6.93;;;3.20;;
32295;SDS011;18781;51.550;5.418;2023-08-08T00:07:05;12.27;;;3.85;;
32295;SDS011;18781;51.550;5.418;2023-08-08T00:09:31;8.82;;;3.53;;
32295;SDS011;18781;51.550;5.418;2023-08-08T00:11:57;6.63;;;3.42;;
32295;SDS011;18781;51.550;5.418;2023-08-08T00:14:23;6.85;;;3.30;;
32295;SDS011;18781;51.550;5.418;2023-08-08T00:16:49;5.75;;;3.35;;
32295;SDS011;18781;51.550;5.418;2023-08-08T00:19:14;7.88;;;3.58;;
32295;SDS011;18781;51.550;5.418;2023-08-08T00:21:40;10.57;;;3.55;;
32295;SDS011;18781;51.550;5.418;2023-08-08T00:24:06;9.07;;;3.00;;
32295;SDS011;18781;51.550;5.418;2023-08-08T00:26:31;8.75;;;3.63;;
32295;SDS011;18781;51.550;5.418;2023-08-08T00:28:57;8.15;;;3.63;;
32295;SDS011;18781;51.550;5.418;2023-08-08T00:31:22;6.70;;;3.10;;
32295;SDS011;18781;51.550;5.418;2023-08-08T00:33:48;7.57;;;3.08;;
32295;SDS011;18781;51.550;5.418;2023-08-08T00:36:13;9.43;;;3.58;;
32295;SDS011;18781;51.550;5.418;2023-08-08T00:38:39;8.93;;;3.50;;
32295;SDS011;18781;51.550;5.418;2023-08-08T00:41:04;7.22;;;3.08;;
32295;SDS011;18781;51.550;5.418;2023-08-08T00:43:30;8.38;;;3.47;;
32295;SDS011;18781;51.550;5.418;2023-08-08T00:45:55;7.80;;;3.10;;
32295;SDS011;18781;51.550;5.418;2023-08-08T00:48:22;14.57;;;3.60;;
32295;SDS011;18781;51.550;5.418;2023-08-08T00:50:48;8.05;;;2.90;;
32295;SDS011;18781;51.550;5.418;2023-08-08T00:53:15;8.73;;;3.28;;
32295;SDS011;18781;51.550;5.418;2023-08-08T00:55:43;12.02;;;3.13;;
32295;SDS011;18781;51.550;5.418;2023-08-08T00:58:08;6.10;;;3.05;;
32295;SDS011;18781;51.550;5.418;2023-08-08T01:00:35;15.80;;;3.47;;
32295;SDS011;18781;51.550;5.418;2023-08-08T01:03:00;7.30;;;3.10;;
32295;SDS011;18781;51.550;5.418;2023-08-08T01:05:27;7.43;;;3.10;;
32295;SDS011;18781;51.550;5.418;2023-08-08T01:08:03;10.95;;;3.20;;
32295;SDS011;18781;51.550;5.418;2023-08-08T01:10:37;12.98;;;3.28;;
32295;SDS011;18781;51.550;5.418;2023-08-08T01:13:05;10.48;;;3.03;;
32295;SDS011;18781;51.550;5.418;2023-08-08T01:15:35;8.65;;;3.40;;
32295;SDS011;18781;51.550;5.418;2023-08-08T01:18:05;7.88;;;3.53;;
32295;SDS011;18781;51.550;5.418;2023-08-08T01:20:32;10.27;;;3.50;;
32295;SDS011;18781;51.550;5.418;2023-08-08T01:23:16;10.73;;;3.75;;
32295;SDS011;18781;51.550;5.418;2023-08-08T01:25:48;10.57;;;3.40;;
32295;SDS011;18781;51.550;5.418;2023-08-08T01:28:15;16.17;;;4.32;;
32295;SDS011;18781;51.550;5.418;2023-08-08T01:30:40;10.93;;;3.35;;
32295;SDS011;18781;51.550;5.418;2023-08-08T01:33:07;9.68;;;3.55;;
32295;SDS011;18781;51.550;5.418;2023-08-08T01:35:34;9.15;;;3.47;;
32295;SDS011;18781;51.550;5.418;2023-08-08T01:38:13;16.52;;;3.95;;
32295;SDS011;18781;51.550;5.418;2023-08-08T01:40:44;9.88;;;3.65;;
32295;SDS011;18781;51.550;5.418;2023-08-08T01:43:11;12.20;;;3.60;;
32295;SDS011;18781;51.550;5.418;2023-08-08T01:45:38;7.72;;;3.70;;
32295;SDS011;18781;51.550;5.418;2023-08-08T01:48:08;11.98;;;3.88;;
32295;SDS011;18781;51.550;5.418;2023-08-08T01:50:35;13.00;;;4.00;;
32295;SDS011;18781;51.550;5.418;2023-08-08T01:53:01;10.60;;;3.70;;
32295;SDS011;18781;51.550;5.418;2023-08-08T01:55:26;10.25;;;3.55;;
32295;SDS011;18781;51.550;5.418;2023-08-08T01:57:52;9.25;;;3.75;;
32295;SDS011;18781;51.550;5.418;2023-08-08T02:00:18;11.55;;;3.67;;
32295;SDS011;18781;51.550;5.418;2023-08-08T02:02:43;11.40;;;4.60;;
32295;SDS011;18781;51.550;5.418;2023-08-08T02:05:09;9.45;;;4.28;;
32295;SDS011;18781;51.550;5.418;2023-08-08T02:07:35;12.68;;;3.85;;
32295;SDS011;18781;51.550;5.418;2023-08-08T02:10:00;10.77;;;4.05;;
32295;SDS011;18781;51.550;5.418;2023-08-08T02:12:26;12.20;;;4.05;;
32295;SDS011;18781;51.550;5.418;2023-08-08T02:14:53;13.90;;;4.28;;
32295;SDS011;18781;51.550;5.418;2023-08-08T02:17:20;11.23;;;3.95;;
32295;SDS011;18781;51.550;5.418;2023-08-08T02:19:46;14.15;;;4.63;;
32295;SDS011;18781;51.550;5.418;2023-08-08T02:22:11;8.68;;;4.20;;
32295;SDS011;18781;51.550;5.418;2023-08-08T02:24:37;11.27;;;4.07;;
32295;SDS011;18781;51.550;5.418;2023-08-08T02:27:02;10.15;;;3.83;;
32295;SDS011;18781;51.550;5.418;2023-08-08T02:29:29;10.65;;;4.00;;
32295;SDS011;18781;51.550;5.418;2023-08-08T02:31:55;10.50;;;4.20;;
32295;SDS011;18781;51.550;5.418;2023-08-08T02:34:20;14.45;;;4.63;;
32295;SDS011;18781;51.550;5.418;2023-08-08T02:36:46;18.73;;;5.22;;
32295;SDS011;18781;51.550;5.418;2023-08-08T02:39:11;11.18;;;4.78;;
32295;SDS011;18781;51.550;5.418;2023-08-08T02:41:37;11.10;;;4.50;;
32295;SDS011;18781;51.550;5.418;2023-08-08T02:44:02;12.50;;;4.57;;
32295;SDS011;18781;51.550;5.418;2023-08-08T02:46:28;12.85;;;4.45;;
32295;SDS011;18781;51.550;5.418;2023-08-08T02:48:54;11.43;;;4.65;;
32295;SDS011;18781;51.550;5.418;2023-08-08T02:51:19;17.55;;;4.50;;
32295;SDS011;18781;51.550;5.418;2023-08-08T02:53:45;13.48;;;4.13;;
32295;SDS011;18781;51.550;5.418;2023-08-08T02:56:10;13.45;;;4.95;;
32295;SDS011;18781;51.550;5.418;2023-08-08T02:58:36;17.77;;;4.75;;
32295;SDS011;18781;51.550;5.418;2023-08-08T03:01:02;20.75;;;5.30;;
32295;SDS011;18781;51.550;5.418;2023-08-08T03:03:27;13.88;;;4.70;;
32295;SDS011;18781;51.550;5.418;2023-08-08T03:05:53;24.33;;;6.30;;
32295;SDS011;18781;51.550;5.418;2023-08-08T03:08:19;18.45;;;5.25;;
32295;SDS011;18781;51.550;5.418;2023-08-08T03:10:44;15.60;;;5.10;;
32295;SDS011;18781;51.550;5.418;2023-08-08T03:13:10;16.00;;;5.47;;
32295;SDS011;18781;51.550;5.418;2023-08-08T03:15:35;15.68;;;5.72;;
32295;SDS011;18781;51.550;5.418;2023-08-08T03:18:01;18.45;;;6.15;;
32295;SDS011;18781;51.550;5.418;2023-08-08T03:20:28;25.85;;;5.68;;
32295;SDS011;18781;51.550;5.418;2023-08-08T03:22:53;19.88;;;6.03;;
32295;SDS011;18781;51.550;5.418;2023-08-08T03:25:19;25.30;;;6.88;;
32295;SDS011;18781;51.550;5.418;2023-08-08T03:27:44;18.83;;;6.45;;
32295;SDS011;18781;51.550;5.418;2023-08-08T03:30:10;17.15;;;6.05;;
32295;SDS011;18781;51.550;5.418;2023-08-08T03:32:36;19.58;;;6.97;;
32295;SDS011;18781;51.550;5.418;2023-08-08T03:35:02;22.40;;;7.10;;
32295;SDS011;18781;51.550;5.418;2023-08-08T03:37:28;16.05;;;6.55;;
32295;SDS011;18781;51.550;5.418;2023-08-08T03:39:54;19.35;;;6.07;;
32295;SDS011;18781;51.550;5.418;2023-08-08T03:42:19;19.05;;;6.38;;
32295;SDS011;18781;51.550;5.418;2023-08-08T03:44:45;23.30;;;6.55;;
32295;SDS011;18781;51.550;5.418;2023-08-08T03:47:11;15.35;;;6.40;;
32295;SDS011;18781;51.550;5.418;2023-08-08T03:49:36;21.52;;;7.13;;
32295;SDS011;18781;51.550;5.418;2023-08-08T03:52:02;17.67;;;6.38;;
32295;SDS011;18781;51.550;5.418;2023-08-08T03:54:28;21.63;;;7.07;;
32295;SDS011;18781;51.550;5.418;2023-08-08T03:56:54;16.55;;;6.38;;
32295;SDS011;18781;51.550;5.418;2023-08-08T03:59:19;24.67;;;7.57;;
32295;SDS011;18781;51.550;5.418;2023-08-08T04:01:45;20.95;;;6.85;;
32295;SDS011;18781;51.550;5.418;2023-08-08T04:04:10;21.90;;;7.32;;
32295;SDS011;18781;51.550;5.418;2023-08-08T04:06:36;21.98;;;7.07;;
32295;SDS011;18781;51.550;5.418;2023-08-08T04:09:02;22.73;;;6.95;;
32295;SDS011;18781;51.550;5.418;2023-08-08T04:11:28;19.77;;;6.60;;
32295;SDS011;18781;51.550;5.418;2023-08-08T04:13:53;26.45;;;7.72;;
32295;SDS011;18781;51.550;5.418;2023-08-08T04:16:19;22.80;;;6.50;;
32295;SDS011;18781;51.550;5.418;2023-08-08T04:18:44;22.35;;;7.60;;
32295;SDS011;18781;51.550;5.418;2023-08-08T04:21:10;18.00;;;6.88;;
32295;SDS011;18781;51.550;5.418;2023-08-08T04:23:36;24.75;;;7.15;;
32295;SDS011;18781;51.550;5.418;2023-08-08T04:26:01;18.15;;;7.55;;
32295;SDS011;18781;51.550;5.418;2023-08-08T04:28:27;16.67;;;7.22;;
32295;SDS011;18781;51.550;5.418;2023-08-08T04:30:53;20.70;;;7.15;;
32295;SDS011;18781;51.550;5.418;2023-08-08T04:33:18;16.70;;;6.65;;
32295;SDS011;18781;51.550;5.418;2023-08-08T04:35:44;18.40;;;6.90;;
32295;SDS011;18781;51.550;5.418;2023-08-08T04:38:10;21.85;;;7.18;;
32295;SDS011;18781;51.550;5.418;2023-08-08T04:40:35;26.17;;;7.25;;
32295;SDS011;18781;51.550;5.418;2023-08-08T04:43:01;22.67;;;7.18;;
32295;SDS011;18781;51.550;5.418;2023-08-08T04:45:26;19.13;;;6.95;;
32295;SDS011;18781;51.550;5.418;2023-08-08T04:47:54;17.95;;;7.30;;
32295;SDS011;18781;51.550;5.418;2023-08-08T04:50:20;22.10;;;6.97;;
32295;SDS011;18781;51.550;5.418;2023-08-08T04:52:46;18.15;;;6.60;;
32295;SDS011;18781;51.550;5.418;2023-08-08T04:55:11;16.70;;;6.25;;
32295;SDS011;18781;51.550;5.418;2023-08-08T04:57:37;18.73;;;6.95;;
32295;SDS011;18781;51.550;5.418;2023-08-08T05:00:03;20.10;;;6.10;;
32295;SDS011;18781;51.550;5.418;2023-08-08T05:02:31;22.50;;;7.00;;
32295;SDS011;18781;51.550;5.418;2023-08-08T05:04:56;19.80;;;6.57;;
32295;SDS011;18781;51.550;5.418;2023-08-08T05:07:22;20.27;;;6.57;;
32295;SDS011;18781;51.550;5.418;2023-08-08T05:09:48;25.15;;;7.45;;
32295;SDS011;18781;51.550;5.418;2023-08-08T05:12:13;19.75;;;7.35;;
32295;SDS011;18781;51.550;5.418;2023-08-08T05:14:39;22.67;;;7.20;;
32295;SDS011;18781;51.550;5.418;2023-08-08T05:17:04;16.77;;;7.00;;
32295;SDS011;18781;51.550;5.418;2023-08-08T05:19:30;19.73;;;7.07;;
32295;SDS011;18781;51.550;5.418;2023-08-08T05:21:56;25.92;;;7.13;;
32295;SDS011;18781;51.550;5.418;2023-08-08T05:24:21;18.27;;;7.20;;
32295;SDS011;18781;51.550;5.418;2023-08-08T05:26:47;23.25;;;7.63;;
32295;SDS011;18781;51.550;5.418;2023-08-08T05:29:13;20.90;;;7.70;;
32295;SDS011;18781;51.550;5.418;2023-08-08T05:31:38;19.58;;;8.00;;
32295;SDS011;18781;51.550;5.418;2023-08-08T05:34:04;24.88;;;7.95;;
32295;SDS011;18781;51.550;5.418;2023-08-08T05:36:29;19.92;;;7.45;;
32295;SDS011;18781;51.550;5.418;2023-08-08T05:38:55;24.10;;;7.35;;
32295;SDS011;18781;51.550;5.418;2023-08-08T05:41:20;22.52;;;7.65;;
32295;SDS011;18781;51.550;5.418;2023-08-08T05:43:46;25.88;;;7.78;;
32295;SDS011;18781;51.550;5.418;2023-08-08T05:46:11;19.02;;;7.78;;
32295;SDS011;18781;51.550;5.418;2023-08-08T05:48:37;30.65;;;8.10;;
32295;SDS011;18781;51.550;5.418;2023-08-08T05:51:02;19.73;;;7.85;;
32295;SDS011;18781;51.550;5.418;2023-08-08T05:53:30;20.30;;;7.20;;
32295;SDS011;18781;51.550;5.418;2023-08-08T05:55:56;21.13;;;7.43;;
32295;SDS011;18781;51.550;5.418;2023-08-08T05:58:22;24.55;;;7.63;;
32295;SDS011;18781;51.550;5.418;2023-08-08T06:00:47;24.38;;;7.68;;
32295;SDS011;18781;51.550;5.418;2023-08-08T06:03:13;28.48;;;8.00;;
32295;SDS011;18781;51.550;5.418;2023-08-08T06:05:39;22.20;;;7.95;;
32295;SDS011;18781;51.550;5.418;2023-08-08T06:08:04;17.85;;;7.85;;
32295;SDS011;18781;51.550;5.418;2023-08-08T06:10:32;23.63;;;7.13;;
32295;SDS011;18781;51.550;5.418;2023-08-08T06:12:59;27.73;;;8.25;;
32295;SDS011;18781;51.550;5.418;2023-08-08T06:15:25;20.75;;;8.70;;
32295;SDS011;18781;51.550;5.418;2023-08-08T06:17:50;20.98;;;7.63;;
32295;SDS011;18781;51.550;5.418;2023-08-08T06:20:16;27.92;;;8.30;;
32295;SDS011;18781;51.550;5.418;2023-08-08T06:22:42;23.70;;;8.52;;
32295;SDS011;18781;51.550;5.418;2023-08-08T06:25:07;23.27;;;8.25;;
32295;SDS011;18781;51.550;5.418;2023-08-08T06:27:33;20.10;;;8.23;;
32295;SDS011;18781;51.550;5.418;2023-08-08T06:29:58;20.25;;;7.93;;
32295;SDS011;18781;51.550;5.418;2023-08-08T06:32:24;23.13;;;8.07;;
32295;SDS011;18781;51.550;5.418;2023-08-08T06:34:49;21.35;;;8.02;;
32295;SDS011;18781;51.550;5.418;2023-08-08T06:37:15;32.08;;;8.35;;
32295;SDS011;18781;51.550;5.418;2023-08-08T06:39:41;18.42;;;7.75;;
32295;SDS011;18781;51.550;5.418;2023-08-08T06:42:07;24.02;;;7.60;;
32295;SDS011;18781;51.550;5.418;2023-08-08T06:44:33;24.55;;;7.80;;
32295;SDS011;18781;51.550;5.418;2023-08-08T06:47:05;17.33;;;7.78;;
32295;SDS011;18781;51.550;5.418;2023-08-08T06:49:31;15.05;;;7.65;;
32295;SDS011;18781;51.550;5.418;2023-08-08T06:51:56;21.23;;;7.82;;
32295;SDS011;18781;51.550;5.418;2023-08-08T06:54:22;23.92;;;7.35;;
32295;SDS011;18781;51.550;5.418;2023-08-08T06:56:47;21.52;;;7.90;;
32295;SDS011;18781;51.550;5.418;2023-08-08T06:59:13;19.42;;;7.97;;
32295;SDS011;18781;51.550;5.418;2023-08-08T07:01:38;30.27;;;8.35;;
32295;SDS011;18781;51.550;5.418;2023-08-08T07:04:05;21.88;;;7.32;;
32295;SDS011;18781;51.550;5.418;2023-08-08T07:06:30;21.88;;;7.75;;
32295;SDS011;18781;51.550;5.418;2023-08-08T07:08:56;22.02;;;7.15;;
32295;SDS011;18781;51.550;5.418;2023-08-08T07:11:21;23.40;;;7.10;;
32295;SDS011;18781;51.550;5.418;2023-08-08T07:13:47;20.98;;;7.28;;
32295;SDS011;18781;51.550;5.418;2023-08-08T07:16:13;21.10;;;7.15;;
32295;SDS011;18781;51.550;5.418;2023-08-08T07:18:38;21.42;;;6.82;;
32295;SDS011;18781;51.550;5.418;2023-08-08T07:21:04;24.75;;;6.40;;
32295;SDS011;18781;51.550;5.418;2023-08-08T07:23:30;15.77;;;5.82;;
32295;SDS011;18781;51.550;5.418;2023-08-08T07:25:56;20.65;;;5.68;;
32295;SDS011;18781;51.550;5.418;2023-08-08T07:28:22;20.05;;;6.05;;
32295;SDS011;18781;51.550;5.418;2023-08-08T07:30:48;18.95;;;6.13;;
32295;SDS011;18781;51.550;5.418;2023-08-08T07:33:13;13.18;;;5.80;;
32295;SDS011;18781;51.550;5.418;2023-08-08T07:35:39;18.65;;;5.32;;
32295;SDS011;18781;51.550;5.418;2023-08-08T07:38:04;17.83;;;5.47;;
32295;SDS011;18781;51.550;5.418;2023-08-08T07:40:30;12.57;;;5.57;;
32295;SDS011;18781;51.550;5.418;2023-08-08T07:42:56;14.90;;;6.43;;
32295;SDS011;18781;51.550;5.418;2023-08-08T07:45:21;13.60;;;5.07;;
32295;SDS011;18781;51.550;5.418;2023-08-08T07:47:47;11.00;;;5.20;;
32295;SDS011;18781;51.550;5.418;2023-08-08T07:50:13;16.90;;;5.07;;
32295;SDS011;18781;51.550;5.418;2023-08-08T07:52:39;15.32;;;5.13;;
32295;SDS011;18781;51.550;5.418;2023-08-08T07:55:05;14.35;;;5.03;;
32295;SDS011;18781;51.550;5.418;2023-08-08T07:57:32;15.48;;;5.13;;
32295;SDS011;18781;51.550;5.418;2023-08-08T08:00:01;11.57;;;4.45;;
32295;SDS011;18781;51.550;5.418;2023-08-08T08:02:33;20.13;;;4.80;;
32295;SDS011;18781;51.550;5.418;2023-08-08T08:04:59;15.80;;;4.72;;
32295;SDS011;18781;51.550;5.418;2023-08-08T08:07:24;11.57;;;3.92;;
32295;SDS011;18781;51.550;5.418;2023-08-08T08:09:50;9.52;;;3.95;;
32295;SDS011;18781;51.550;5.418;2023-08-08T08:12:15;10.80;;;4.18;;
32295;SDS011;18781;51.550;5.418;2023-08-08T08:14:41;19.23;;;4.55;;
32295;SDS011;18781;51.550;5.418;2023-08-08T08:17:07;14.10;;;4.90;;
32295;SDS011;18781;51.550;5.418;2023-08-08T08:19:33;13.60;;;4.75;;
32295;SDS011;18781;51.550;5.418;2023-08-08T08:21:59;11.07;;;4.07;;
32295;SDS011;18781;51.550;5.418;2023-08-08T08:24:24;16.13;;;4.75;;
32295;SDS011;18781;51.550;5.418;2023-08-08T08:26:50;12.98;;;4.75;;
32295;SDS011;18781;51.550;5.418;2023-08-08T08:29:15;17.70;;;4.93;;
32295;SDS011;18781;51.550;5.418;2023-08-08T08:31:41;14.80;;;4.25;;
32295;SDS011;18781;51.550;5.418;2023-08-08T08:34:07;9.52;;;4.25;;
32295;SDS011;18781;51.550;5.418;2023-08-08T08:36:32;15.98;;;4.45;;
32295;SDS011;18781;51.550;5.418;2023-08-08T08:38:58;12.05;;;3.88;;
32295;SDS011;18781;51.550;5.418;2023-08-08T08:41:25;14.70;;;4.30;;
32295;SDS011;18781;51.550;5.418;2023-08-08T08:43:53;14.65;;;3.33;;
32295;SDS011;18781;51.550;5.418;2023-08-08T08:46:20;13.73;;;4.30;;
32295;SDS011;18781;51.550;5.418;2023-08-08T08:48:47;13.77;;;3.40;;
32295;SDS011;18781;51.550;5.418;2023-08-08T08:51:14;11.00;;;3.70;;
32295;SDS011;18781;51.550;5.418;2023-08-08T08:53:41;11.40;;;4.10;;
32295;SDS011;18781;51.550;5.418;2023-08-08T08:56:08;11.43;;;3.70;;
32295;SDS011;18781;51.550;5.418;2023-08-08T08:58:34;10.43;;;3.95;;
32295;SDS011;18781;51.550;5.418;2023-08-08T09:00:59;11.43;;;3.30;;
32295;SDS011;18781;51.550;5.418;2023-08-08T09:03:25;12.85;;;3.97;;
32295;SDS011;18781;51.550;5.418;2023-08-08T09:05:51;9.98;;;3.30;;
32295;SDS011;18781;51.550;5.418;2023-08-08T09:08:19;9.80;;;2.60;;
32295;SDS011;18781;51.550;5.418;2023-08-08T09:10:45;9.88;;;3.20;;
32295;SDS011;18781;51.550;5.418;2023-08-08T09:13:11;9.25;;;3.50;;
32295;SDS011;18781;51.550;5.418;2023-08-08T09:15:36;12.52;;;3.10;;
32295;SDS011;18781;51.550;5.418;2023-08-08T09:18:02;13.25;;;3.13;;
32295;SDS011;18781;51.550;5.418;2023-08-08T09:20:28;10.63;;;3.67;;
32295;SDS011;18781;51.550;5.418;2023-08-08T09:22:54;12.45;;;3.47;;
32295;SDS011;18781;51.550;5.418;2023-08-08T09:25:19;13.45;;;3.63;;
32295;SDS011;18781;51.550;5.418;2023-08-08T09:27:45;7.38;;;3.45;;
32295;SDS011;18781;51.550;5.418;2023-08-08T09:30:11;13.65;;;2.92;;
32295;SDS011;18781;51.550;5.418;2023-08-08T09:32:37;12.10;;;3.10;;
32295;SDS011;18781;51.550;5.418;2023-08-08T09:35:03;11.10;;;3.22;;
32295;SDS011;18781;51.550;5.418;2023-08-08T09:37:34;10.32;;;2.55;;
32295;SDS011;18781;51.550;5.418;2023-08-08T09:40:01;14.75;;;3.70;;
32295;SDS011;18781;51.550;5.418;2023-08-08T09:42:29;9.65;;;3.42;;
32295;SDS011;18781;51.550;5.418;2023-08-08T09:44:58;5.05;;;2.83;;
32295;SDS011;18781;51.550;5.418;2023-08-08T09:49:50;6.78;;;2.90;;
32295;SDS011;18781;51.550;5.418;2023-08-08T09:52:16;10.70;;;2.95;;
32295;SDS011;18781;51.550;5.418;2023-08-08T09:54:43;8.85;;;2.72;;
32295;SDS011;18781;51.550;5.418;2023-08-08T09:57:09;12.55;;;2.78;;
32295;SDS011;18781;51.550;5.418;2023-08-08T09:59:35;5.18;;;2.30;;
32295;SDS011;18781;51.550;5.418;2023-08-08T10:02:02;9.45;;;2.47;;
32295;SDS011;18781;51.550;5.418;2023-08-08T10:04:30;12.43;;;2.85;;
32295;SDS011;18781;51.550;5.418;2023-08-08T10:06:56;9.45;;;2.53;;
32295;SDS011;18781;51.550;5.418;2023-08-08T10:09:21;11.20;;;2.60;;
32295;SDS011;18781;51.550;5.418;2023-08-08T10:11:48;6.78;;;2.30;;
32295;SDS011;18781;51.550;5.418;2023-08-08T10:14:14;8.43;;;2.22;;
32295;SDS011;18781;51.550;5.418;2023-08-08T10:16:41;8.93;;;2.38;;
32295;SDS011;18781;51.550;5.418;2023-08-08T10:19:09;9.02;;;2.22;;
32295;SDS011;18781;51.550;5.418;2023-08-08T10:21:35;5.55;;;2.10;;
32295;SDS011;18781;51.550;5.418;2023-08-08T10:24:06;6.95;;;1.88;;
32295;SDS011;18781;51.550;5.418;2023-08-08T10:26:54;5.00;;;1.70;;
32295;SDS011;18781;51.550;5.418;2023-08-08T10:29:25;7.25;;;2.30;;
32295;SDS011;18781;51.550;5.418;2023-08-08T10:31:59;6.28;;;2.17;;
32295;SDS011;18781;51.550;5.418;2023-08-08T10:34:39;8.10;;;2.00;;
32295;SDS011;18781;51.550;5.418;2023-08-08T10:37:12;9.20;;;2.20;;
32295;SDS011;18781;51.550;5.418;2023-08-08T10:42:19;8.30;;;2.58;;
32295;SDS011;18781;51.550;5.418;2023-08-08T10:44:55;8.43;;;2.45;;
32295;SDS011;18781;51.550;5.418;2023-08-08T10:47:23;7.82;;;2.28;;
32295;SDS011;18781;51.550;5.418;2023-08-08T10:52:33;5.93;;;2.20;;
32295;SDS011;18781;51.550;5.418;2023-08-08T10:55:02;9.35;;;2.60;;
32295;SDS011;18781;51.550;5.418;2023-08-08T10:57:28;14.82;;;3.10;;
32295;SDS011;18781;51.550;5.418;2023-08-08T11:00:15;9.63;;;2.63;;
32295;SDS011;18781;51.550;5.418;2023-08-08T11:02:41;8.75;;;3.00;;
32295;SDS011;18781;51.550;5.418;2023-08-08T11:05:09;9.88;;;3.00;;
32295;SDS011;18781;51.550;5.418;2023-08-08T11:07:34;9.93;;;3.10;;
32295;SDS011;18781;51.550;5.418;2023-08-08T11:10:02;8.82;;;3.10;;
32295;SDS011;18781;51.550;5.418;2023-08-08T11:12:28;11.50;;;3.20;;
32295;SDS011;18781;51.550;5.418;2023-08-08T11:14:54;9.02;;;3.30;;
32295;SDS011;18781;51.550;5.418;2023-08-08T11:17:20;8.48;;;2.95;;
32295;SDS011;18781;51.550;5.418;2023-08-08T11:19:45;5.70;;;2.53;;
32295;SDS011;18781;51.550;5.418;2023-08-08T11:22:11;8.07;;;2.20;;
32295;SDS011;18781;51.550;5.418;2023-08-08T11:24:37;6.03;;;2.08;;
32295;SDS011;18781;51.550;5.418;2023-08-08T11:27:02;11.45;;;2.25;;
32295;SDS011;18781;51.550;5.418;2023-08-08T11:29:28;6.78;;;2.00;;
32295;SDS011;18781;51.550;5.418;2023-08-08T11:31:56;6.05;;;2.00;;
32295;SDS011;18781;51.550;5.418;2023-08-08T11:34:24;5.07;;;2.33;;
32295;SDS011;18781;51.550;5.418;2023-08-08T11:36:49;9.18;;;2.38;;
32295;SDS011;18781;51.550;5.418;2023-08-08T11:39:15;7.30;;;2.58;;
32295;SDS011;18781;51.550;5.418;2023-08-08T11:41:41;8.02;;;2.70;;
32295;SDS011;18781;51.550;5.418;2023-08-08T11:44:07;8.65;;;2.50;;
32295;SDS011;18781;51.550;5.418;2023-08-08T11:46:33;4.70;;;1.70;;
32295;SDS011;18781;51.550;5.418;2023-08-08T11:49:03;4.30;;;1.88;;
32295;SDS011;18781;51.550;5.418;2023-08-08T11:51:31;6.25;;;2.03;;
32295;SDS011;18781;51.550;5.418;2023-08-08T11:53:58;5.57;;;1.85;;
32295;SDS011;18781;51.550;5.418;2023-08-08T11:56:25;5.22;;;1.95;;
32295;SDS011;18781;51.550;5.418;2023-08-08T11:58:51;2.97;;;1.60;;
32295;SDS011;18781;51.550;5.418;2023-08-08T12:01:21;5.35;;;1.85;;
32295;SDS011;18781;51.550;5.418;2023-08-08T12:03:47;6.90;;;1.73;;
32295;SDS011;18781;51.550;5.418;2023-08-08T12:06:14;8.60;;;1.75;;
32295;SDS011;18781;51.550;5.418;2023-08-08T12:08:41;8.20;;;2.03;;
32295;SDS011;18781;51.550;5.418;2023-08-08T12:11:08;7.63;;;1.90;;
32295;SDS011;18781;51.550;5.418;2023-08-08T12:13:34;7.18;;;1.75;;
32295;SDS011;18781;51.550;5.418;2023-08-08T12:16:04;5.93;;;1.67;;
32295;SDS011;18781;51.550;5.418;2023-08-08T12:18:37;5.93;;;1.58;;
32295;SDS011;18781;51.550;5.418;2023-08-08T12:21:04;3.58;;;1.30;;
32295;SDS011;18781;51.550;5.418;2023-08-08T12:23:30;6.32;;;1.38;;
32295;SDS011;18781;51.550;5.418;2023-08-08T12:25:57;4.20;;;1.48;;
32295;SDS011;18781;51.550;5.418;2023-08-08T12:28:24;2.67;;;1.02;;
32295;SDS011;18781;51.550;5.418;2023-08-08T12:30:49;4.80;;;1.20;;
32295;SDS011;18781;51.550;5.418;2023-08-08T12:33:15;1.75;;;0.80;;
32295;SDS011;18781;51.550;5.418;2023-08-08T12:35:40;4.97;;;1.40;;
32295;SDS011;18781;51.550;5.418;2023-08-08T12:38:06;3.47;;;1.30;;
32295;SDS011;18781;51.550;5.418;2023-08-08T12:40:32;2.00;;;0.95;;
32295;SDS011;18781;51.550;5.418;2023-08-08T12:42:58;4.38;;;1.25;;
32295;SDS011;18781;51.550;5.418;2023-08-08T12:45:24;6.40;;;1.10;;
32295;SDS011;18781;51.550;5.418;2023-08-08T12:47:50;2.35;;;1.00;;
32295;SDS011;18781;51.550;5.418;2023-08-08T12:50:15;2.78;;;1.00;;
32295;SDS011;18781;51.550;5.418;2023-08-08T12:52:41;2.42;;;1.08;;
32295;SDS011;18781;51.550;5.418;2023-08-08T12:55:07;3.05;;;0.80;;
32295;SDS011;18781;51.550;5.418;2023-08-08T12:57:34;5.13;;;0.80;;
32295;SDS011;18781;51.550;5.418;2023-08-08T12:59:59;4.18;;;0.90;;
32295;SDS011;18781;51.550;5.418;2023-08-08T13:02:25;3.33;;;0.98;;
32295;SDS011;18781;51.550;5.418;2023-08-08T13:04:50;3.83;;;1.20;;
32295;SDS011;18781;51.550;5.418;2023-08-08T13:07:16;2.55;;;0.82;;
32295;SDS011;18781;51.550;5.418;2023-08-08T13:09:42;3.03;;;0.88;;
32295;SDS011;18781;51.550;5.418;2023-08-08T13:12:07;4.32;;;1.30;;
32295;SDS011;18781;51.550;5.418;2023-08-08T13:14:33;1.98;;;0.80;;
32295;SDS011;18781;51.550;5.418;2023-08-08T13:16:58;6.32;;;1.20;;
32295;SDS011;18781;51.550;5.418;2023-08-08T13:19:24;4.20;;;1.27;;
32295;SDS011;18781;51.550;5.418;2023-08-08T13:21:51;3.83;;;1.05;;
32295;SDS011;18781;51.550;5.418;2023-08-08T13:24:17;4.28;;;1.10;;
32295;SDS011;18781;51.550;5.418;2023-08-08T13:26:43;3.75;;;0.95;;
32295;SDS011;18781;51.550;5.418;2023-08-08T13:29:09;3.95;;;1.10;;
32295;SDS011;18781;51.550;5.418;2023-08-08T13:31:34;3.08;;;1.00;;
32295;SDS011;18781;51.550;5.418;2023-08-08T13:34:00;5.22;;;0.93;;
32295;SDS011;18781;51.550;5.418;2023-08-08T13:36:25;2.65;;;0.80;;
32295;SDS011;18781;51.550;5.418;2023-08-08T13:38:51;5.07;;;1.25;;
32295;SDS011;18781;51.550;5.418;2023-08-08T13:41:16;3.05;;;1.00;;
32295;SDS011;18781;51.550;5.418;2023-08-08T13:43:42;1.40;;;1.00;;
32295;SDS011;18781;51.550;5.418;2023-08-08T13:46:08;5.30;;;0.93;;
32295;SDS011;18781;51.550;5.418;2023-08-08T13:48:35;2.75;;;0.90;;
32295;SDS011;18781;51.550;5.418;2023-08-08T13:51:01;3.22;;;1.17;;
32295;SDS011;18781;51.550;5.418;2023-08-08T13:53:27;3.17;;;1.10;;
32295;SDS011;18781;51.550;5.418;2023-08-08T13:55:53;5.45;;;1.30;;
32295;SDS011;18781;51.550;5.418;2023-08-08T13:58:19;2.97;;;1.08;;
32295;SDS011;18781;51.550;5.418;2023-08-08T14:00:47;5.15;;;1.13;;
32295;SDS011;18781;51.550;5.418;2023-08-08T14:03:13;2.58;;;1.27;;
32295;SDS011;18781;51.550;5.418;2023-08-08T14:05:38;3.50;;;1.20;;
32295;SDS011;18781;51.550;5.418;2023-08-08T14:08:04;9.15;;;1.38;;
32295;SDS011;18781;51.550;5.418;2023-08-08T14:10:30;1.70;;;0.90;;
32295;SDS011;18781;51.550;5.418;2023-08-08T14:12:56;3.05;;;1.00;;
32295;SDS011;18781;51.550;5.418;2023-08-08T14:15:21;3.92;;;1.35;;
32295;SDS011;18781;51.550;5.418;2023-08-08T14:17:47;3.38;;;1.10;;
32295;SDS011;18781;51.550;5.418;2023-08-08T14:20:13;3.65;;;1.08;;
32295;SDS011;18781;51.550;5.418;2023-08-08T14:22:39;4.18;;;1.20;;
32295;SDS011;18781;51.550;5.418;2023-08-08T14:25:04;3.03;;;1.27;;
32295;SDS011;18781;51.550;5.418;2023-08-08T14:27:31;4.55;;;1.02;;
32295;SDS011;18781;51.550;5.418;2023-08-08T14:29:56;3.15;;;1.20;;
32295;SDS011;18781;51.550;5.418;2023-08-08T14:32:22;3.38;;;1.05;;
32295;SDS011;18781;51.550;5.418;2023-08-08T14:34:48;3.22;;;1.25;;
32295;SDS011;18781;51.550;5.418;2023-08-08T14:37:13;5.80;;;1.13;;
32295;SDS011;18781;51.550;5.418;2023-08-08T14:39:39;2.40;;;0.98;;
32295;SDS011;18781;51.550;5.418;2023-08-08T14:42:05;4.10;;;1.35;;
32295;SDS011;18781;51.550;5.418;2023-08-08T14:44:31;6.05;;;1.17;;